createdAt,value
2022-09-28T00:00:42.827Z,0.40
2022-09-28T00:03:29.770Z,0.30
2022-09-28T00:06:17.409Z,0.43
2022-09-28T00:09:04.638Z,0.30
2022-09-28T00:11:52.626Z,0.50
2022-09-28T00:14:42.914Z,0.50
2022-09-28T00:17:30.078Z,0.43
2022-09-28T00:20:18.112Z,0.38
2022-09-28T00:23:05.291Z,0.57
2022-09-28T00:25:52.239Z,0.50
2022-09-28T00:28:39.461Z,0.60
2022-09-28T00:31:29.200Z,0.40
2022-09-28T00:34:18.514Z,0.50
2022-09-28T00:37:08.782Z,0.52
2022-09-28T00:39:56.211Z,0.60
2022-09-28T00:42:45.025Z,0.30
2022-09-28T00:45:32.167Z,0.60
2022-09-28T00:48:20.826Z,0.68
2022-09-28T00:51:10.511Z,0.70
2022-09-28T00:53:57.969Z,0.47
2022-09-28T00:56:49.481Z,0.32
2022-09-28T00:59:36.913Z,0.40
2022-09-28T01:02:24.300Z,0.60
2022-09-28T01:05:13.362Z,0.68
2022-09-28T01:08:00.690Z,0.90
2022-09-28T01:10:48.744Z,0.50
2022-09-28T01:13:37.957Z,0.47
2022-09-28T01:16:29.890Z,0.50
2022-09-28T01:19:31.325Z,0.57
2022-09-28T01:22:26.817Z,0.40
2022-09-28T01:25:14.971Z,0.77
2022-09-28T01:28:06.711Z,0.70
2022-09-28T01:30:58.694Z,0.50
2022-09-28T01:33:46.922Z,0.65
2022-09-28T01:36:36.766Z,0.52
2022-09-28T01:39:26.095Z,0.70
2022-09-28T01:42:16.257Z,0.70
2022-09-28T01:45:06.626Z,0.75
2022-09-28T01:47:55.253Z,0.47
2022-09-28T01:50:43.938Z,0.50
2022-09-28T01:53:34.564Z,0.60
2022-09-28T01:56:26.719Z,0.52
2022-09-28T01:59:15.261Z,0.60
2022-09-28T02:02:05.543Z,0.52
2022-09-28T02:04:55.882Z,0.60
2022-09-28T02:07:46.268Z,0.40
2022-09-28T02:10:35.057Z,0.55
2022-09-28T02:13:24.035Z,0.77
2022-09-28T02:16:15.706Z,0.70
2022-09-28T02:19:04.927Z,0.68
2022-09-28T02:21:57.771Z,0.70
2022-09-28T02:24:49.669Z,0.57
2022-09-28T02:27:44.919Z,0.60
2022-09-28T02:30:33.802Z,0.60
2022-09-28T02:33:23.078Z,0.60
2022-09-28T02:36:14.729Z,0.60
2022-09-28T02:39:02.940Z,0.70
2022-09-28T02:41:57.706Z,0.63
2022-09-28T02:44:54.717Z,0.73
2022-09-28T02:47:50.606Z,0.80
2022-09-28T02:50:43.163Z,0.70
2022-09-28T02:53:45.487Z,1.00
2022-09-28T02:56:39.928Z,0.50
2022-09-28T02:59:32.374Z,0.70
2022-09-28T03:02:22.313Z,0.90
2022-09-28T03:05:15.693Z,0.80
2022-09-28T03:08:03.890Z,0.77
2022-09-28T03:10:55.876Z,1.20
2022-09-28T03:13:43.580Z,0.90
2022-09-28T03:16:32.154Z,0.90
2022-09-28T03:19:24.613Z,0.50
2022-09-28T03:22:11.829Z,0.90
2022-09-28T03:25:01.722Z,0.47
2022-09-28T03:27:50.495Z,0.47
2022-09-28T03:30:37.839Z,0.55
2022-09-28T03:33:24.899Z,0.70
2022-09-28T03:36:11.642Z,0.60
2022-09-28T03:38:59.607Z,0.57
2022-09-28T03:41:46.578Z,0.63
2022-09-28T03:44:35.748Z,0.80
2022-09-28T03:47:22.547Z,0.50
2022-09-28T03:50:10.093Z,0.70
2022-09-28T03:52:56.922Z,0.50
2022-09-28T03:55:43.785Z,0.50
2022-09-28T03:58:30.975Z,0.63
2022-09-28T04:01:19.473Z,0.73
2022-09-28T04:04:07.573Z,0.70
2022-09-28T04:06:54.930Z,0.65
2022-09-28T04:09:41.991Z,0.60
2022-09-28T04:12:28.950Z,0.73
2022-09-28T04:15:16.280Z,0.47
2022-09-28T04:18:04.835Z,0.65
2022-09-28T04:21:07.125Z,0.75
2022-09-28T04:23:59.459Z,0.70
2022-09-28T04:26:49.508Z,0.60
2022-09-28T04:29:37.038Z,0.73
2022-09-28T04:32:25.584Z,0.77
2022-09-28T04:35:14.370Z,1.60
2022-09-28T04:38:02.484Z,0.70
2022-09-28T04:40:51.763Z,0.60
2022-09-28T04:43:38.903Z,0.90
2022-09-28T04:46:26.141Z,0.70
2022-09-28T04:49:37.109Z,0.90
2022-09-28T04:52:30.705Z,0.87
2022-09-28T04:55:17.880Z,0.90
2022-09-28T04:58:06.189Z,0.80
2022-09-28T05:00:56.351Z,0.47
2022-09-28T05:04:08.891Z,0.73
2022-09-28T05:07:08.129Z,0.83
2022-09-28T05:09:57.630Z,0.90
2022-09-28T05:12:44.610Z,0.90
2022-09-28T05:15:31.749Z,1.30
2022-09-28T05:18:18.755Z,1.00
2022-09-28T05:21:14.453Z,1.13
2022-09-28T05:24:01.441Z,0.80
2022-09-28T05:26:49.955Z,1.20
2022-09-28T05:29:37.498Z,0.60
2022-09-28T05:32:44.265Z,0.65
2022-09-28T05:35:39.483Z,0.30
2022-09-28T05:38:26.951Z,0.35
2022-09-28T05:41:14.186Z,0.63
2022-09-28T05:44:03.052Z,0.40
2022-09-28T05:46:50.967Z,0.30
2022-09-28T05:49:38.072Z,0.55
2022-09-28T05:52:25.153Z,0.60
2022-09-28T05:55:12.720Z,0.45
2022-09-28T05:58:02.002Z,0.20
2022-09-28T06:00:55.653Z,1.02
2022-09-28T06:03:42.894Z,0.40
2022-09-28T06:06:29.846Z,0.40
2022-09-28T06:09:17.391Z,0.47
2022-09-28T06:12:07.483Z,0.50
2022-09-28T06:15:04.687Z,0.32
2022-09-28T06:17:58.514Z,0.32
2022-09-28T06:20:57.051Z,0.57
2022-09-28T06:24:04.946Z,0.60
2022-09-28T06:26:53.424Z,0.30
2022-09-28T06:29:41.538Z,0.50
2022-09-28T06:32:29.235Z,0.73
2022-09-28T06:35:20.042Z,0.60
2022-09-28T06:38:07.464Z,0.60
2022-09-28T06:40:54.983Z,0.68
2022-09-28T06:43:45.415Z,0.90
2022-09-28T06:46:32.555Z,1.10
2022-09-28T06:49:38.695Z,0.98
2022-09-28T06:52:45.957Z,1.00
2022-09-28T06:56:01.003Z,1.27
2022-09-28T06:58:49.260Z,0.93
2022-09-28T07:01:36.634Z,0.60
2022-09-28T07:04:34.045Z,0.73
2022-09-28T07:07:42.890Z,0.55
2022-09-28T07:10:44.919Z,0.60
2022-09-28T07:13:54.956Z,0.50
2022-09-28T07:17:07.889Z,0.40
2022-09-28T07:19:52.890Z,0.55
2022-09-28T07:22:43.622Z,0.47
2022-09-28T07:25:37.014Z,0.40
2022-09-28T07:28:44.664Z,0.50
2022-09-28T07:31:50.832Z,0.40
2022-09-28T07:34:58.932Z,0.43
2022-09-28T07:38:06.552Z,0.70
2022-09-28T07:41:12.532Z,0.32
2022-09-28T07:44:07.845Z,0.43
2022-09-28T07:46:56.873Z,0.40
2022-09-28T07:50:04.471Z,0.35
2022-09-28T07:53:16.713Z,0.50
2022-09-28T07:56:19.571Z,0.60
2022-09-28T07:59:23.206Z,0.40
2022-09-28T08:02:35.792Z,0.60
2022-09-28T08:05:23.202Z,0.32
2022-09-28T08:08:10.516Z,0.70
2022-09-28T08:10:58.140Z,0.43
2022-09-28T08:14:17.287Z,0.47
2022-09-28T08:17:30.749Z,0.47
2022-09-28T08:20:38.558Z,0.90
2022-09-28T08:23:25.911Z,0.88
2022-09-28T08:26:15.495Z,0.50
2022-09-28T08:29:04.302Z,0.50
2022-09-28T08:32:03.971Z,0.60
2022-09-28T08:34:59.291Z,0.63
2022-09-28T08:38:11.192Z,0.60
2022-09-28T08:41:19.271Z,0.47
2022-09-28T08:48:23.943Z,0.50
2022-09-28T08:51:37.433Z,0.43
2022-09-28T08:54:39.764Z,0.30
2022-09-28T08:57:35.728Z,0.38
2022-09-28T09:00:26.873Z,0.40
2022-09-28T09:03:15.007Z,0.40
2022-09-28T09:06:07.770Z,0.50
2022-09-28T09:09:21.929Z,0.30
2022-09-28T09:12:12.179Z,0.40
2022-09-28T09:15:17.191Z,0.70
2022-09-28T09:18:10.653Z,0.70
2022-09-28T09:21:11.928Z,0.30
2022-09-28T09:24:05.857Z,0.47
2022-09-28T09:26:57.686Z,1.02
2022-09-28T09:29:55.226Z,0.38
2022-09-28T09:32:56.024Z,0.60
2022-09-28T09:35:51.071Z,1.10
2022-09-28T09:39:14.544Z,1.17
2022-09-28T09:42:29.698Z,0.80
2022-09-28T09:45:43.385Z,1.40
2022-09-28T09:48:52.678Z,0.83
2022-09-28T09:51:43.876Z,1.40
2022-09-28T09:54:34.068Z,0.80
2022-09-28T09:57:24.683Z,1.08
2022-09-28T10:00:25.767Z,1.27
2022-09-28T10:03:26.897Z,1.27
2022-09-28T10:06:19.239Z,1.42
2022-09-28T10:09:08.456Z,1.27
2022-09-28T10:11:56.402Z,0.77
2022-09-28T10:14:43.670Z,0.63
2022-09-28T10:17:34.212Z,0.93
2022-09-28T10:20:41.087Z,1.00
2022-09-28T10:23:52.069Z,0.88
2022-09-28T10:26:40.988Z,1.40
2022-09-28T10:29:36.008Z,0.85
2022-09-28T10:32:25.122Z,0.57
2022-09-28T10:35:23.249Z,1.00
2022-09-28T10:38:24.779Z,0.65
2022-09-28T10:41:18.381Z,1.00
2022-09-28T10:44:16.547Z,0.75
2022-09-28T10:47:22.073Z,0.88
2022-09-28T10:50:16.177Z,0.90
2022-09-28T10:53:14.181Z,0.75
2022-09-28T10:56:21.419Z,0.50
2022-09-28T10:59:24.919Z,0.63
2022-09-28T11:02:20.425Z,0.75
2022-09-28T11:05:09.347Z,1.48
2022-09-28T11:08:08.295Z,0.80
2022-09-28T11:11:10.621Z,0.90
2022-09-28T11:14:01.013Z,0.75
2022-09-28T11:17:11.573Z,1.05
2022-09-28T11:20:00.392Z,1.20
2022-09-28T11:22:51.525Z,0.73
2022-09-28T11:25:42.365Z,0.98
2022-09-28T11:28:33.812Z,0.88
2022-09-28T11:31:28.295Z,0.80
2022-09-28T11:34:41.555Z,0.80
2022-09-28T11:37:36.537Z,0.70
2022-09-28T11:41:23.568Z,0.68
2022-09-28T11:44:36.572Z,0.68
2022-09-28T11:47:39.848Z,0.70
2022-09-28T11:50:30.289Z,0.52
2022-09-28T11:53:21.126Z,0.60
2022-09-28T11:56:16.542Z,0.40
2022-09-28T11:59:06.631Z,0.40
2022-09-28T12:02:07.113Z,0.38
2022-09-28T12:05:18.397Z,0.32
2022-09-28T12:08:10.893Z,1.02
2022-09-28T12:11:20.229Z,1.38
2022-09-28T12:14:28.526Z,1.40
2022-09-28T12:17:23.338Z,1.52
2022-09-28T12:20:16.480Z,2.50
2022-09-28T12:23:05.747Z,0.80
2022-09-28T12:25:59.667Z,0.50
2022-09-28T12:28:49.392Z,0.60
2022-09-28T12:31:38.944Z,1.00
2022-09-28T12:34:27.072Z,0.63
2022-09-28T12:37:22.063Z,0.25
2022-09-28T12:40:27.338Z,0.32
2022-09-28T12:43:30.097Z,0.30
2022-09-28T12:46:24.070Z,0.70
2022-09-28T12:52:38.220Z,0.40
2022-09-28T12:55:29.560Z,0.30
2022-09-28T12:58:24.409Z,0.47
2022-09-28T13:01:19.502Z,0.50
2022-09-28T13:04:14.689Z,0.90
2022-09-28T13:07:04.207Z,0.50
2022-09-28T13:09:57.894Z,0.55
2022-09-28T13:12:52.540Z,0.43
2022-09-28T13:15:42.645Z,0.47
2022-09-28T13:18:31.905Z,0.90
2022-09-28T13:21:22.294Z,0.20
2022-09-28T13:24:31.084Z,0.10
2022-09-28T13:27:23.604Z,0.25
2022-09-28T13:30:15.293Z,0.22
2022-09-28T13:33:03.849Z,0.70
2022-09-28T13:35:50.740Z,0.50
2022-09-28T13:38:51.926Z,0.50
2022-09-28T13:41:40.404Z,0.40
2022-09-28T13:44:51.517Z,0.40
2022-09-28T13:47:56.456Z,0.10
2022-09-28T13:50:52.994Z,0.30
2022-09-28T13:53:49.164Z,0.20
2022-09-28T13:56:39.014Z,0.13
2022-09-28T13:59:30.352Z,0.37
2022-09-28T14:02:25.674Z,0.20
2022-09-28T14:05:27.532Z,0.10
2022-09-28T14:08:28.272Z,0.25
2022-09-28T14:11:34.339Z,0.20
2022-09-28T14:14:29.185Z,0.20
2022-09-28T14:17:50.142Z,0.20
2022-09-28T14:20:38.215Z,0.30
2022-09-28T14:23:40.541Z,0.20
2022-09-28T14:26:39.620Z,0.20
2022-09-28T14:29:29.303Z,0.30
2022-09-28T14:32:23.761Z,0.30
2022-09-28T14:35:18.973Z,0.15
2022-09-28T14:38:24.926Z,0.30
2022-09-28T14:41:16.140Z,0.10
2022-09-28T14:44:04.645Z,0.10
2022-09-28T14:46:51.765Z,0.32
2022-09-28T14:49:47.495Z,0.15
2022-09-28T14:52:42.361Z,0.20
2022-09-28T14:55:31.124Z,0.20
2022-09-28T14:58:25.108Z,0.10
2022-09-28T15:01:17.137Z,0.10
2022-09-28T15:04:06.618Z,0.15
2022-09-28T15:06:54.075Z,0.15
2022-09-28T15:09:44.251Z,0.30
2022-09-28T15:12:31.867Z,0.20
2022-09-28T15:15:26.225Z,0.30
2022-09-28T15:18:31.091Z,0.20
2022-09-28T15:21:18.806Z,0.20
2022-09-28T15:24:20.875Z,0.45
2022-09-28T15:27:18.978Z,0.25
2022-09-28T15:30:22.149Z,0.60
2022-09-28T15:36:04.471Z,0.70
2022-09-28T15:38:57.010Z,0.60
2022-09-28T15:41:44.890Z,0.80
2022-09-28T15:44:33.352Z,0.80
2022-09-28T15:47:26.859Z,0.53
2022-09-28T15:50:22.813Z,0.70
2022-09-28T15:53:19.307Z,0.75
2022-09-28T15:56:10.167Z,0.22
2022-09-28T15:59:12.790Z,0.40
2022-09-28T16:02:20.719Z,0.60
2022-09-28T16:06:36.216Z,0.45
2022-09-28T16:08:59.370Z,0.55
2022-09-28T16:11:51.007Z,0.63
2022-09-28T16:14:38.199Z,0.73
2022-09-28T16:17:32.676Z,1.02
2022-09-28T16:20:23.297Z,0.70
2022-09-28T16:23:14.532Z,0.98
2022-09-28T16:26:03.919Z,1.33
2022-09-28T16:28:52.118Z,0.98
2022-09-28T16:31:41.525Z,1.23
2022-09-28T16:34:30.197Z,2.28
2022-09-28T16:37:25.099Z,1.52
2022-09-28T16:40:12.203Z,1.88
2022-09-28T16:43:02.906Z,1.95
2022-09-28T16:45:50.195Z,2.78
2022-09-28T16:48:39.494Z,2.10
2022-09-28T16:51:26.825Z,1.98
2022-09-28T16:54:33.740Z,1.80
2022-09-28T16:57:20.822Z,2.90
2022-09-28T17:00:11.485Z,1.98
2022-09-28T17:02:58.786Z,1.40
2022-09-28T17:05:46.899Z,0.30
2022-09-28T17:08:35.499Z,0.32
2022-09-28T17:11:24.902Z,0.28
2022-09-28T17:14:12.423Z,0.20
2022-09-28T17:17:09.625Z,0.20
2022-09-28T17:19:57.630Z,0.50
2022-09-28T17:22:44.491Z,0.28
2022-09-28T17:25:32.367Z,0.28
2022-09-28T17:28:23.273Z,0.30
2022-09-28T17:31:13.424Z,0.57
2022-09-28T17:34:02.168Z,0.57
2022-09-28T17:36:49.640Z,0.73
2022-09-28T17:39:36.721Z,0.90
2022-09-28T17:42:23.637Z,0.75
2022-09-28T17:45:10.891Z,1.15
2022-09-28T17:47:59.775Z,0.68
2022-09-28T17:50:49.183Z,0.80
2022-09-28T17:53:36.310Z,0.80
2022-09-28T17:56:24.936Z,0.77
2022-09-28T17:59:14.969Z,0.57
2022-09-28T18:02:02.749Z,0.70
2022-09-28T18:04:52.311Z,0.70
2022-09-28T18:07:45.361Z,0.65
2022-09-28T18:10:35.236Z,0.50
2022-09-28T18:13:22.135Z,0.50
2022-09-28T18:16:09.149Z,0.20
2022-09-28T18:18:58.147Z,0.40
2022-09-28T18:21:45.335Z,0.40
2022-09-28T18:24:33.874Z,0.60
2022-09-28T18:27:20.669Z,0.38
2022-09-28T18:30:08.603Z,0.50
2022-09-28T18:32:56.167Z,1.00
2022-09-28T18:35:43.419Z,0.30
2022-09-28T18:38:30.373Z,0.52
2022-09-28T18:41:18.739Z,0.60
2022-09-28T18:44:05.753Z,0.60
2022-09-28T18:46:55.768Z,0.50
2022-09-28T18:49:46.574Z,1.27
2022-09-28T18:52:34.233Z,0.63
2022-09-28T18:55:21.317Z,0.45
2022-09-28T18:58:09.998Z,0.50
2022-09-28T19:01:13.573Z,0.30
2022-09-28T19:04:05.752Z,0.50
2022-09-28T19:06:54.343Z,0.32
2022-09-28T19:09:43.989Z,0.60
2022-09-28T19:12:30.938Z,0.30
2022-09-28T19:15:20.241Z,0.40
2022-09-28T19:18:07.200Z,0.50
2022-09-28T19:20:54.271Z,0.43
2022-09-28T19:23:44.713Z,0.40
2022-09-28T19:26:36.649Z,0.32
2022-09-28T19:29:24.032Z,0.38
2022-09-28T19:32:12.885Z,0.50
2022-09-28T19:34:59.670Z,0.40
2022-09-28T19:37:49.003Z,0.70
2022-09-28T19:40:38.407Z,0.20
2022-09-28T19:43:26.233Z,0.40
2022-09-28T19:46:13.244Z,0.22
2022-09-28T19:49:03.062Z,0.30
2022-09-28T19:54:57.582Z,0.37
2022-09-28T19:57:47.822Z,0.17
2022-09-28T20:00:34.964Z,0.40
2022-09-28T20:03:25.848Z,0.30
2022-09-28T20:06:17.331Z,0.38
2022-09-28T20:09:04.985Z,0.40
2022-09-28T20:11:53.256Z,0.40
2022-09-28T20:14:40.633Z,0.22
2022-09-28T20:17:27.884Z,0.65
2022-09-28T20:20:14.816Z,0.35
2022-09-28T20:23:04.333Z,0.30
2022-09-28T20:25:54.058Z,0.38
2022-09-28T20:28:41.574Z,0.30
2022-09-28T20:31:28.846Z,0.40
2022-09-28T20:34:15.965Z,0.40
2022-09-28T20:37:02.846Z,0.45
2022-09-28T20:39:51.661Z,0.30
2022-09-28T20:42:39.391Z,0.35
2022-09-28T20:45:26.548Z,0.35
2022-09-28T20:48:13.631Z,0.22
2022-09-28T20:51:02.873Z,0.40
2022-09-28T20:53:51.677Z,0.40
2022-09-28T20:56:40.317Z,0.43
2022-09-28T20:59:27.720Z,0.50
2022-09-28T21:02:15.822Z,0.50
2022-09-28T21:05:02.915Z,0.50
2022-09-28T21:07:57.509Z,0.40
2022-09-28T21:10:47.529Z,0.30
2022-09-28T21:13:36.102Z,0.32
2022-09-28T21:16:27.069Z,0.22
2022-09-28T21:19:13.866Z,0.30
2022-09-28T21:22:01.067Z,0.40
2022-09-28T21:24:48.152Z,0.50
2022-09-28T21:27:35.463Z,0.38
2022-09-28T21:30:29.735Z,0.30
2022-09-28T21:33:16.732Z,0.40
2022-09-28T21:36:04.312Z,0.50
2022-09-28T21:38:51.410Z,0.28
2022-09-28T21:41:38.596Z,0.47
2022-09-28T21:44:25.701Z,0.30
2022-09-28T21:47:14.170Z,0.50
2022-09-28T21:50:01.554Z,0.55
2022-09-28T21:52:48.791Z,0.50
2022-09-28T21:55:36.342Z,0.30
2022-09-28T21:58:24.329Z,0.40
2022-09-28T22:01:13.057Z,0.33
2022-09-28T22:04:01.912Z,0.40
2022-09-28T22:06:49.543Z,0.30
2022-09-28T22:09:36.588Z,0.30
2022-09-28T22:12:24.186Z,0.20
2022-09-28T22:15:12.141Z,0.28
2022-09-28T22:17:59.857Z,0.30
2022-09-28T22:20:48.471Z,0.30
2022-09-28T22:23:35.951Z,0.30
2022-09-28T22:26:24.781Z,0.20
2022-09-28T22:29:12.296Z,0.47
2022-09-28T22:32:02.176Z,0.13
2022-09-28T22:34:49.427Z,0.32
2022-09-28T22:37:37.894Z,0.38
2022-09-28T22:40:29.166Z,0.30
2022-09-28T22:43:17.674Z,0.20
2022-09-28T22:46:05.785Z,0.30
2022-09-28T22:48:53.827Z,0.40
2022-09-28T22:51:40.975Z,0.30
2022-09-28T22:54:29.762Z,0.40
2022-09-28T22:57:16.996Z,0.20
2022-09-28T23:00:04.316Z,0.30
2022-09-28T23:02:51.658Z,0.20
2022-09-28T23:05:40.389Z,0.40
2022-09-28T23:08:31.953Z,0.30
2022-09-28T23:11:20.852Z,0.63
2022-09-28T23:14:08.318Z,0.40
2022-09-28T23:16:55.143Z,0.30
2022-09-28T23:19:42.367Z,0.80
2022-09-28T23:22:29.429Z,0.50
2022-09-28T23:25:17.122Z,0.35
2022-09-28T23:28:05.655Z,0.40
2022-09-28T23:30:52.935Z,0.38
2022-09-28T23:33:40.411Z,0.40
2022-09-28T23:36:27.637Z,0.20
2022-09-28T23:39:14.604Z,0.32
2022-09-28T23:42:01.628Z,0.30
2022-09-28T23:44:50.092Z,0.20
2022-09-28T23:47:37.433Z,0.47
2022-09-28T23:50:24.825Z,0.30
2022-09-28T23:53:12.210Z,0.57
2022-09-28T23:55:59.598Z,0.40
2022-09-28T23:58:48.695Z,0.40
